createdAt,value
2022-09-28T00:00:58.390Z,-20233.25
2022-09-28T00:03:25.990Z,-20233.88
2022-09-28T00:05:54.947Z,-20233.09
2022-09-28T00:08:22.484Z,-20232.50
2022-09-28T00:10:56.345Z,-20230.97
2022-09-28T00:13:24.535Z,-20230.97
2022-09-28T00:16:00.613Z,-20233.25
2022-09-28T00:18:28.423Z,-20232.50
2022-09-28T00:21:05.659Z,-20233.72
2022-09-28T00:23:33.999Z,-20234.03
2022-09-28T00:26:05.071Z,-20233.09
2022-09-28T00:28:32.739Z,-20234.63
2022-09-28T00:31:01.298Z,-20234.31
2022-09-28T00:33:29.099Z,-20237.38
2022-09-28T00:35:57.718Z,-20239.22
2022-09-28T00:38:29.484Z,-20239.22
2022-09-28T00:40:57.194Z,-20238.16
2022-09-28T00:43:25.691Z,-20238.47
2022-09-28T00:46:00.340Z,-20238.00
2022-09-28T00:48:32.486Z,-20238.47
2022-09-28T00:51:03.845Z,-20237.69
2022-09-28T00:53:36.433Z,-20234.63
2022-09-28T00:56:07.515Z,-20234.47
2022-09-28T00:58:39.602Z,-20234.63
2022-09-28T01:01:07.256Z,-20235.25
2022-09-28T01:03:35.857Z,-20234.31
2022-09-28T01:06:05.556Z,-20234.31
2022-09-28T01:08:37.124Z,-20233.88
2022-09-28T01:11:04.730Z,-20232.81
2022-09-28T01:13:33.900Z,-20232.34
2022-09-28T01:16:12.742Z,-20232.94
2022-09-28T01:18:48.782Z,-20234.78
2022-09-28T01:21:19.960Z,-20233.41
2022-09-28T01:24:24.670Z,-20230.97
2022-09-28T01:27:01.482Z,-20230.66
2022-09-28T01:29:43.181Z,-20229.13
2022-09-28T01:32:22.105Z,-20230.34
2022-09-28T01:34:57.094Z,-20228.50
2022-09-28T01:37:32.021Z,-20227.59
2022-09-28T01:40:02.575Z,-20227.59
2022-09-28T01:42:35.423Z,-20224.53
2022-09-28T01:45:10.667Z,-20225.91
2022-09-28T01:47:40.974Z,-20226.06
2022-09-28T01:50:12.979Z,-20223.94
2022-09-28T01:52:46.957Z,-20223.78
2022-09-28T01:55:21.998Z,-20224.84
2022-09-28T01:57:55.806Z,-20225.00
2022-09-28T02:00:26.389Z,-20226.69
2022-09-28T02:02:59.097Z,-20227.00
2022-09-28T02:05:31.215Z,-20227.28
2022-09-28T02:08:04.350Z,-20226.69
2022-09-28T02:10:39.035Z,-20226.22
2022-09-28T02:13:14.138Z,-20226.69
2022-09-28T02:15:47.023Z,-20226.69
2022-09-28T02:18:15.074Z,-20226.06
2022-09-28T02:20:47.694Z,-20225.91
2022-09-28T02:23:17.192Z,-20224.53
2022-09-28T02:25:52.530Z,-20221.63
2022-09-28T02:28:21.457Z,-20223.63
2022-09-28T02:30:49.061Z,-20222.41
2022-09-28T02:33:21.978Z,-20223.63
2022-09-28T02:35:49.847Z,-20222.69
2022-09-28T02:38:17.821Z,-20222.09
2022-09-28T02:40:51.937Z,-20219.50
2022-09-28T02:43:25.780Z,-20217.81
2022-09-28T02:46:02.987Z,-20216.72
2022-09-28T02:49:00.126Z,-20219.63
2022-09-28T02:51:43.261Z,-20221.78
2022-09-28T02:54:28.236Z,-20220.25
2022-09-28T02:57:09.330Z,-20221.03
2022-09-28T02:59:47.588Z,-20223.00
2022-09-28T03:02:23.340Z,-20222.41
2022-09-28T03:05:08.741Z,-20221.63
2022-09-28T03:07:41.091Z,-20222.69
2022-09-28T03:10:17.753Z,-20221.47
2022-09-28T03:12:48.149Z,-20221.94
2022-09-28T03:15:22.906Z,-20220.88
2022-09-28T03:17:51.078Z,-20221.03
2022-09-28T03:20:19.505Z,-20219.19
2022-09-28T03:23:00.533Z,-20218.72
2022-09-28T03:25:35.210Z,-20218.25
2022-09-28T03:28:03.218Z,-20219.03
2022-09-28T03:30:32.143Z,-20218.13
2022-09-28T03:33:02.338Z,-20217.81
2022-09-28T03:35:30.189Z,-20216.44
2022-09-28T03:37:58.495Z,-20216.13
2022-09-28T03:40:26.353Z,-20215.97
2022-09-28T03:42:54.648Z,-20215.19
2022-09-28T03:45:22.858Z,-20213.81
2022-09-28T03:47:51.854Z,-20215.34
2022-09-28T03:50:19.407Z,-20212.00
2022-09-28T03:52:47.050Z,-20213.38
2022-09-28T03:55:14.758Z,-20213.22
2022-09-28T03:57:42.350Z,-20216.88
2022-09-28T04:00:11.878Z,-20213.97
2022-09-28T04:02:39.519Z,-20212.59
2022-09-28T04:05:09.237Z,-20212.13
2022-09-28T04:07:36.809Z,-20212.59
2022-09-28T04:10:04.860Z,-20211.84
2022-09-28T04:12:32.455Z,-20210.75
2022-09-28T04:14:59.983Z,-20210.47
2022-09-28T04:17:27.724Z,-20209.53
2022-09-28T04:19:55.380Z,-20209.06
2022-09-28T04:22:24.898Z,-20206.63
2022-09-28T04:24:52.694Z,-20202.97
2022-09-28T04:27:38.039Z,-20201.88
2022-09-28T04:30:06.218Z,-20205.09
2022-09-28T04:32:33.950Z,-20203.72
2022-09-28T04:35:01.490Z,-20198.97
2022-09-28T04:37:31.159Z,-20201.88
2022-09-28T04:39:58.789Z,-20203.25
2022-09-28T04:42:26.319Z,-20201.59
2022-09-28T04:44:53.929Z,-20203.41
2022-09-28T04:47:21.822Z,-20202.81
2022-09-28T04:49:49.356Z,-20203.72
2022-09-28T04:52:18.555Z,-20204.34
2022-09-28T04:54:47.672Z,-20202.81
2022-09-28T04:57:15.341Z,-20203.41
2022-09-28T04:59:42.862Z,-20204.03
2022-09-28T05:02:10.689Z,-20205.88
2022-09-28T05:04:38.295Z,-20207.41
2022-09-28T05:07:06.147Z,-20207.41
2022-09-28T05:09:37.678Z,-20209.53
2022-09-28T05:12:07.539Z,-20210.31
2022-09-28T05:14:35.159Z,-20210.16
2022-09-28T05:17:02.992Z,-20210.47
2022-09-28T05:19:31.294Z,-20208.78
2022-09-28T05:22:00.421Z,-20209.53
2022-09-28T05:24:28.031Z,-20207.25
2022-09-28T05:26:55.582Z,-20207.69
2022-09-28T05:29:25.310Z,-20204.94
2022-09-28T05:31:54.951Z,-20205.88
2022-09-28T05:34:22.542Z,-20205.88
2022-09-28T05:36:50.084Z,-20206.47
2022-09-28T05:39:17.732Z,-20207.69
2022-09-28T05:41:45.390Z,-20205.25
2022-09-28T05:44:12.947Z,-20202.50
2022-09-28T05:46:41.834Z,-20205.88
2022-09-28T05:49:09.399Z,-20207.09
2022-09-28T05:51:37.066Z,-20206.78
2022-09-28T05:54:15.898Z,-20208.31
2022-09-28T05:56:43.459Z,-20206.78
2022-09-28T05:59:12.089Z,-20213.06
2022-09-28T06:01:39.803Z,-20212.28
2022-09-28T06:04:09.157Z,-20212.28
2022-09-28T06:06:38.218Z,-20215.34
2022-09-28T06:09:05.816Z,-20215.50
2022-09-28T06:11:33.837Z,-20218.13
2022-09-28T06:14:01.462Z,-20217.50
2022-09-28T06:16:29.095Z,-20219.19
2022-09-28T06:18:56.688Z,-20220.72
2022-09-28T06:21:25.603Z,-20222.69
2022-09-28T06:23:53.189Z,-20223.31
2022-09-28T06:26:20.737Z,-20221.78
2022-09-28T06:28:48.311Z,-20220.09
2022-09-28T06:31:15.971Z,-20222.09
2022-09-28T06:33:43.716Z,-20227.00
2022-09-28T06:36:11.245Z,-20221.03
2022-09-28T06:38:40.174Z,-20222.25
2022-09-28T06:41:07.747Z,-20226.69
2022-09-28T06:43:36.667Z,-20231.56
2022-09-28T06:46:04.504Z,-20229.28
2022-09-28T06:48:33.453Z,-20233.41
2022-09-28T06:51:01.498Z,-20232.19
2022-09-28T06:53:30.215Z,-20230.03
2022-09-28T06:56:00.680Z,-20229.44
2022-09-28T06:58:29.161Z,-20231.72
2022-09-28T07:00:59.445Z,-20232.50
2022-09-28T07:03:27.416Z,-20235.25
2022-09-28T07:05:56.799Z,-20238.00
2022-09-28T07:08:25.993Z,-20242.91
2022-09-28T07:10:56.198Z,-20244.28
2022-09-28T07:16:13.988Z,-20253.28
2022-09-28T07:18:42.203Z,-20250.53
2022-09-28T07:21:20.230Z,-20250.38
2022-09-28T07:23:53.902Z,-20257.88
2022-09-28T07:26:24.363Z,-20255.75
2022-09-28T07:28:55.769Z,-20257.44
2022-09-28T07:31:25.154Z,-20256.66
2022-09-28T07:33:53.746Z,-20258.03
2022-09-28T07:36:22.755Z,-20257.88
2022-09-28T07:38:50.532Z,-20284.31
2022-09-28T07:41:22.324Z,-20304.94
2022-09-28T07:43:50.712Z,-20312.59
2022-09-28T07:46:21.187Z,-20316.41
2022-09-28T07:48:49.629Z,-20333.66
2022-09-28T07:51:20.062Z,-20340.69
2022-09-28T07:53:47.991Z,-20361.72
2022-09-28T07:56:17.293Z,-20381.25
2022-09-28T07:58:44.834Z,-20401.97
2022-09-28T08:01:15.091Z,-20393.72
2022-09-28T08:03:47.800Z,-20360.50
2022-09-28T08:06:17.582Z,-20386.13
2022-09-28T08:08:45.765Z,-20384.28
2022-09-28T08:11:14.176Z,-20400.75
2022-09-28T08:13:42.537Z,-20394.94
2022-09-28T08:16:10.062Z,-20387.47
2022-09-28T08:18:37.870Z,-20408.97
2022-09-28T08:21:25.391Z,-20411.41
2022-09-28T08:23:53.052Z,-20424.50
2022-09-28T08:26:20.797Z,-20407.16
2022-09-28T08:28:48.390Z,-20413.53
2022-09-28T08:31:16.022Z,-20407.75
2022-09-28T08:33:43.626Z,-20409.59
2022-09-28T08:36:12.623Z,-20414.75
2022-09-28T08:38:40.147Z,-20420.84
2022-09-28T08:41:17.850Z,-20396.78
2022-09-28T08:44:10.246Z,-20391.00
2022-09-28T08:46:43.261Z,-20396.47
2022-09-28T08:49:26.146Z,-20379.88
2022-09-28T08:52:01.220Z,-20383.53
2022-09-28T08:54:37.413Z,-20377.28
2022-09-28T08:57:12.351Z,-20360.19
2022-09-28T08:59:47.796Z,-20331.06
2022-09-28T09:02:20.019Z,-20322.06
2022-09-28T09:04:48.380Z,-20329.69
2022-09-28T09:07:40.331Z,-20330.00
2022-09-28T09:10:19.722Z,-20336.09
2022-09-28T09:12:55.282Z,-20361.09
2022-09-28T09:15:34.375Z,-20381.38
2022-09-28T09:18:19.816Z,-20404.56
2022-09-28T09:20:53.406Z,-20417.19
2022-09-28T09:23:35.682Z,-20400.44
2022-09-28T09:26:14.204Z,-20390.06
2022-09-28T09:29:06.527Z,-20359.28
2022-09-28T09:31:47.393Z,-20348.00
2022-09-28T09:34:31.430Z,-20342.19
2022-09-28T09:37:24.649Z,-20335.19
2022-09-28T09:40:04.730Z,-20329.06
2022-09-28T09:42:48.062Z,-20329.38
2022-09-28T09:45:31.082Z,-20317.47
2022-09-28T09:48:04.116Z,-20308.63
2022-09-28T09:50:35.371Z,-20305.25
2022-09-28T09:53:07.757Z,-20306.16
2022-09-28T09:55:43.319Z,-20316.84
2022-09-28T09:58:15.986Z,-20360.50
2022-09-28T10:00:46.552Z,-20385.50
2022-09-28T10:03:23.148Z,-20411.72
2022-09-28T10:05:57.561Z,-20389.00
2022-09-28T10:08:27.643Z,-20368.13
2022-09-28T10:11:08.319Z,-20346.31
2022-09-28T10:13:36.140Z,-20333.03
2022-09-28T10:16:04.002Z,-20340.97
2022-09-28T10:18:31.566Z,-20369.81
2022-09-28T10:20:59.235Z,-20399.06
2022-09-28T10:23:28.986Z,-20415.38
2022-09-28T10:26:03.340Z,-20449.16
2022-09-28T10:28:36.327Z,-20450.06
2022-09-28T10:31:35.369Z,-20473.66
2022-09-28T10:34:03.994Z,-20471.38
2022-09-28T10:36:38.210Z,-20429.97
2022-09-28T10:39:06.798Z,-20424.66
2022-09-28T10:41:50.573Z,-20428.31
2022-09-28T10:44:19.971Z,-20433.63
2022-09-28T10:46:57.609Z,-20442.47
2022-09-28T10:49:27.028Z,-20437.75
2022-09-28T10:51:56.180Z,-20438.50
2022-09-28T10:54:25.552Z,-20409.59
2022-09-28T10:56:55.814Z,-20429.97
2022-09-28T10:59:40.909Z,-20439.13
2022-09-28T11:02:22.163Z,-20440.03
2022-09-28T11:04:55.805Z,-20439.13
2022-09-28T11:07:26.126Z,-20438.22
2022-09-28T11:09:56.103Z,-20414.44
2022-09-28T11:12:28.271Z,-20441.25
2022-09-28T11:15:01.774Z,-20442.47
2022-09-28T11:17:31.532Z,-20435.47
2022-09-28T11:20:00.857Z,-20444.59
2022-09-28T11:22:41.629Z,-20460.88
2022-09-28T11:25:31.248Z,-20467.72
2022-09-28T11:28:04.417Z,-20438.06
2022-09-28T11:30:35.221Z,-20442.31
2022-09-28T11:33:05.925Z,-20439.88
2022-09-28T11:35:48.807Z,-20445.81
2022-09-28T11:38:31.247Z,-20446.28
2022-09-28T11:41:12.934Z,-20436.22
2022-09-28T11:44:03.827Z,-20448.84
2022-09-28T11:46:38.561Z,-20463.16
2022-09-28T11:49:16.392Z,-20464.06
2022-09-28T11:51:47.034Z,-20467.72
2022-09-28T11:54:28.788Z,-20461.63
2022-09-28T11:57:02.262Z,-20472.44
2022-09-28T11:59:34.340Z,-20440.34
2022-09-28T12:02:11.275Z,-20425.41
2022-09-28T12:04:43.506Z,-20413.53
2022-09-28T12:07:17.443Z,-20407.59
2022-09-28T12:09:52.855Z,-20413.25
2022-09-28T12:12:25.546Z,-20402.28
2022-09-28T12:15:01.319Z,-20410.81
2022-09-28T12:17:33.446Z,-20412.94
2022-09-28T12:20:11.055Z,-20419.78
2022-09-28T12:22:43.903Z,-20433.03
2022-09-28T12:25:15.967Z,-20440.34
2022-09-28T12:27:51.412Z,-20450.53
2022-09-28T12:30:22.591Z,-20450.22
2022-09-28T12:32:53.870Z,-20423.59
2022-09-28T12:35:32.472Z,-20408.50
2022-09-28T12:38:25.883Z,-20402.88
2022-09-28T12:41:02.553Z,-20402.28
2022-09-28T12:44:08.651Z,-20397.25
2022-09-28T12:46:51.012Z,-20403.63
2022-09-28T12:52:42.794Z,-20443.84
2022-09-28T12:55:24.099Z,-20437.91
2022-09-28T12:58:00.659Z,-20449.47
2022-09-28T13:00:39.948Z,-20438.66
2022-09-28T13:03:31.923Z,-20433.94
2022-09-28T13:06:25.709Z,-20422.69
2022-09-28T13:09:07.403Z,-20412.94
2022-09-28T13:11:42.544Z,-20409.59
2022-09-28T13:14:51.182Z,-20426.34
2022-09-28T13:17:25.662Z,-20433.34
2022-09-28T13:19:59.814Z,-20436.84
2022-09-28T13:22:39.996Z,-20428.75
2022-09-28T13:25:16.606Z,-20447.03
2022-09-28T13:27:49.491Z,-20450.69
2022-09-28T13:30:19.516Z,-20458.44
2022-09-28T13:32:48.717Z,-20462.41
2022-09-28T13:35:20.307Z,-20424.81
2022-09-28T13:37:48.695Z,-20427.84
2022-09-28T13:40:16.354Z,-20424.66
2022-09-28T13:43:07.760Z,-20421.00
2022-09-28T13:45:50.733Z,-20420.41
2022-09-28T13:48:20.661Z,-20427.84
2022-09-28T13:51:23.336Z,-20438.22
2022-09-28T13:54:11.364Z,-20463.75
2022-09-28T13:56:50.734Z,-20445.50
2022-09-28T13:59:26.051Z,-20459.66
2022-09-28T14:01:55.718Z,-20475.78
2022-09-28T14:04:25.091Z,-20457.84
2022-09-28T14:06:55.866Z,-20447.78
2022-09-28T14:09:25.368Z,-20454.63
2022-09-28T14:11:57.441Z,-20452.97
2022-09-28T14:14:26.949Z,-20439.28
2022-09-28T14:17:01.252Z,-20442.78
2022-09-28T14:19:31.545Z,-20427.53
2022-09-28T14:22:08.950Z,-20435.78
2022-09-28T14:24:44.968Z,-20433.34
2022-09-28T14:27:27.284Z,-20427.25
2022-09-28T14:29:56.188Z,-20429.69
2022-09-28T14:32:24.865Z,-20438.97
2022-09-28T14:34:57.858Z,-20447.03
2022-09-28T14:37:47.103Z,-20438.97
2022-09-28T14:40:36.477Z,-20428.47
2022-09-28T14:43:25.496Z,-20434.41
2022-09-28T14:46:14.730Z,-20429.69
2022-09-28T14:48:48.361Z,-20435.78
2022-09-28T14:51:35.327Z,-20424.50
2022-09-28T14:54:05.174Z,-20420.84
2022-09-28T14:56:35.048Z,-20427.84
2022-09-28T14:59:03.137Z,-20421.75
2022-09-28T15:01:30.501Z,-20416.91
2022-09-28T15:04:01.286Z,-20420.09
2022-09-28T15:06:44.721Z,-20431.66
2022-09-28T15:09:27.030Z,-20436.69
2022-09-28T15:11:55.727Z,-20433.63
2022-09-28T15:14:24.480Z,-20443.06
2022-09-28T15:16:52.130Z,-20433.78
2022-09-28T15:19:25.691Z,-20436.38
2022-09-28T15:21:53.417Z,-20434.84
2022-09-28T15:24:28.594Z,-20434.56
2022-09-28T15:26:56.853Z,-20429.38
2022-09-28T15:29:25.777Z,-20429.69
2022-09-28T15:31:54.654Z,-20424.81
2022-09-28T15:34:48.812Z,-20416.13
2022-09-28T15:37:18.886Z,-20415.22
2022-09-28T15:39:48.053Z,-20421.16
2022-09-28T15:42:16.406Z,-20418.72
2022-09-28T15:44:47.618Z,-20407.16
2022-09-28T15:47:16.623Z,-20403.50
2022-09-28T15:49:47.453Z,-20412.63
2022-09-28T15:52:24.210Z,-20422.06
2022-09-28T15:54:51.874Z,-20423.88
2022-09-28T15:57:37.691Z,-20419.19
2022-09-28T16:00:06.572Z,-20414.75
2022-09-28T16:02:34.046Z,-20409.72
2022-09-28T16:05:05.081Z,-20410.81
2022-09-28T16:07:35.298Z,-20404.41
2022-09-28T16:10:04.732Z,-20404.09
2022-09-28T16:12:41.408Z,-20400.75
2022-09-28T16:15:20.061Z,-20406.53
2022-09-28T16:17:51.900Z,-20399.97
2022-09-28T16:20:23.089Z,-20393.88
2022-09-28T16:22:50.742Z,-20394.66
2022-09-28T16:25:20.351Z,-20391.91
2022-09-28T16:27:47.755Z,-20386.72
2022-09-28T16:30:21.686Z,-20382.47
2022-09-28T16:32:51.690Z,-20377.72
2022-09-28T16:35:22.897Z,-20379.72
2022-09-28T16:37:56.346Z,-20376.22
2022-09-28T16:40:23.921Z,-20371.50
2022-09-28T16:42:51.766Z,-20367.97
2022-09-28T16:45:20.270Z,-20363.25
2022-09-28T16:47:52.697Z,-20353.19
2022-09-28T16:50:22.058Z,-20355.31
2022-09-28T16:53:08.286Z,-20358.53
2022-09-28T16:55:40.579Z,-20357.16
2022-09-28T16:58:08.579Z,-20356.22
2022-09-28T17:00:36.163Z,-20348.91
2022-09-28T17:03:05.528Z,-20350.59
2022-09-28T17:05:34.378Z,-20353.63
2022-09-28T17:08:02.867Z,-20346.94
2022-09-28T17:10:41.188Z,-20341.59
2022-09-28T17:13:20.793Z,-20334.88
2022-09-28T17:15:50.330Z,-20332.44
2022-09-28T17:18:18.697Z,-20330.59
2022-09-28T17:20:49.198Z,-20330.16
2022-09-28T17:23:16.718Z,-20328.78
2022-09-28T17:25:44.227Z,-20325.41
2022-09-28T17:28:17.930Z,-20322.50
2022-09-28T17:30:45.410Z,-20321.44
2022-09-28T17:33:13.304Z,-20314.72
2022-09-28T17:35:40.978Z,-20308.63
2022-09-28T17:38:10.174Z,-20309.06
2022-09-28T17:40:37.704Z,-20306.63
2022-09-28T17:43:05.650Z,-20303.44
2022-09-28T17:45:39.043Z,-20305.72
2022-09-28T17:48:08.986Z,-20308.47
2022-09-28T17:50:36.963Z,-20307.53
2022-09-28T17:53:06.401Z,-20304.94
2022-09-28T17:55:36.582Z,-20297.47
2022-09-28T17:58:12.786Z,-20297.63
2022-09-28T18:00:40.882Z,-20295.47
2022-09-28T18:03:12.768Z,-20295.47
2022-09-28T18:05:40.760Z,-20294.56
2022-09-28T18:08:09.573Z,-20295.16
2022-09-28T18:10:38.386Z,-20294.72
2022-09-28T18:13:05.915Z,-20294.88
2022-09-28T18:15:33.515Z,-20297.94
2022-09-28T18:18:01.045Z,-20297.63
2022-09-28T18:20:28.795Z,-20295.31
2022-09-28T18:22:56.638Z,-20298.22
2022-09-28T18:25:24.400Z,-20297.00
2022-09-28T18:27:57.125Z,-20293.34
2022-09-28T18:30:25.107Z,-20291.22
2022-09-28T18:32:52.812Z,-20290.44
2022-09-28T18:35:23.016Z,-20287.38
2022-09-28T18:37:51.210Z,-20285.25
2022-09-28T18:40:20.053Z,-20285.41
2022-09-28T18:42:47.718Z,-20282.66
2022-09-28T18:45:17.231Z,-20282.50
2022-09-28T18:47:45.216Z,-20281.72
2022-09-28T18:50:15.307Z,-20281.41
2022-09-28T18:52:44.046Z,-20282.78
2022-09-28T18:55:11.815Z,-20282.19
2022-09-28T18:57:41.225Z,-20277.28
2022-09-28T19:00:11.552Z,-20276.38
2022-09-28T19:02:40.750Z,-20277.44
2022-09-28T19:05:09.283Z,-20277.75
2022-09-28T19:07:37.038Z,-20276.38
2022-09-28T19:10:05.469Z,-20275.00
2022-09-28T19:12:33.615Z,-20278.38
2022-09-28T19:15:01.314Z,-20279.28
2022-09-28T19:17:29.038Z,-20278.38
2022-09-28T19:19:58.054Z,-20276.22
2022-09-28T19:22:25.752Z,-20277.13
2022-09-28T19:24:53.390Z,-20276.84
2022-09-28T19:27:21.346Z,-20273.47
2022-09-28T19:29:49.120Z,-20270.72
2022-09-28T19:32:16.795Z,-20270.13
2022-09-28T19:34:44.351Z,-20269.66
2022-09-28T19:37:15.770Z,-20267.34
2022-09-28T19:39:43.338Z,-20266.91
2022-09-28T19:42:10.875Z,-20265.22
2022-09-28T19:44:39.150Z,-20264.59
2022-09-28T19:47:08.662Z,-20263.38
2022-09-28T19:49:38.407Z,-20265.84
2022-09-28T19:52:17.323Z,-20264.91
2022-09-28T19:54:56.550Z,-20263.53
2022-09-28T19:57:25.925Z,-20266.13
2022-09-28T19:59:57.838Z,-20264.31
2022-09-28T20:02:28.784Z,-20261.25
2022-09-28T20:04:56.337Z,-20260.94
2022-09-28T20:07:24.171Z,-20262.63
2022-09-28T20:09:53.033Z,-20261.41
2022-09-28T20:12:20.561Z,-20262.63
2022-09-28T20:14:48.161Z,-20263.53
2022-09-28T20:17:15.701Z,-20261.41
2022-09-28T20:19:43.234Z,-20266.13
2022-09-28T20:22:12.049Z,-20263.09
2022-09-28T20:24:39.649Z,-20267.22
2022-09-28T20:27:08.614Z,-20269.50
2022-09-28T20:29:36.154Z,-20269.81
2022-09-28T20:32:04.773Z,-20266.44
2022-09-28T20:34:33.410Z,-20263.09
2022-09-28T20:37:01.062Z,-20262.16
2022-09-28T20:39:28.622Z,-20261.84
2022-09-28T20:41:56.652Z,-20261.09
2022-09-28T20:44:25.596Z,-20254.53
2022-09-28T20:46:53.302Z,-20249.94
2022-09-28T20:49:21.589Z,-20249.00
2022-09-28T20:51:49.151Z,-20244.44
2022-09-28T20:54:16.802Z,-20240.91
2022-09-28T20:56:44.452Z,-20237.53
2022-09-28T20:59:13.058Z,-20239.84
2022-09-28T21:01:42.051Z,-20239.06
2022-09-28T21:04:11.231Z,-20234.03
2022-09-28T21:06:40.625Z,-20231.25
2022-09-28T21:09:09.938Z,-20223.78
2022-09-28T21:11:37.682Z,-20224.22
2022-09-28T21:14:07.902Z,-20218.13
2022-09-28T21:16:35.979Z,-20213.53
2022-09-28T21:19:05.375Z,-20210.31
2022-09-28T21:21:32.950Z,-20209.53
2022-09-28T21:24:00.619Z,-20208.63
2022-09-28T21:26:29.838Z,-20205.56
2022-09-28T21:28:59.134Z,-20204.03
2022-09-28T21:31:29.597Z,-20202.19
2022-09-28T21:33:57.643Z,-20202.97
2022-09-28T21:36:26.923Z,-20200.81
2022-09-28T21:38:55.517Z,-20202.34
2022-09-28T21:41:23.098Z,-20199.91
2022-09-28T21:43:50.750Z,-20197.91
2022-09-28T21:46:18.587Z,-20197.91
2022-09-28T21:48:46.198Z,-20196.06
2022-09-28T21:51:15.472Z,-20193.16
2022-09-28T21:53:44.598Z,-20193.16
2022-09-28T21:56:13.773Z,-20191.16
2022-09-28T21:58:41.574Z,-20189.34
2022-09-28T22:01:12.958Z,-20185.81
2022-09-28T22:03:40.759Z,-20182.75
2022-09-28T22:06:09.184Z,-20181.22
2022-09-28T22:08:37.876Z,-20180.75
2022-09-28T22:11:09.626Z,-20177.69
2022-09-28T22:13:40.794Z,-20176.63
2022-09-28T22:16:09.289Z,-20177.69
2022-09-28T22:18:36.932Z,-20177.38
2022-09-28T22:21:07.548Z,-20176.16
2022-09-28T22:23:36.108Z,-20175.53
2022-09-28T22:26:07.975Z,-20175.84
2022-09-28T22:28:35.702Z,-20173.09
2022-09-28T22:31:03.524Z,-20171.56
2022-09-28T22:33:31.225Z,-20171.41
2022-09-28T22:35:58.782Z,-20170.03
2022-09-28T22:38:26.349Z,-20168.03
2022-09-28T22:40:56.087Z,-20166.97
2022-09-28T22:43:26.292Z,-20166.66
2022-09-28T22:46:01.907Z,-20166.97
2022-09-28T22:48:29.671Z,-20165.44
2022-09-28T22:50:57.316Z,-20166.50
2022-09-28T22:53:25.070Z,-20162.69
2022-09-28T22:55:52.634Z,-20165.44
2022-09-28T22:58:20.197Z,-20163.91
2022-09-28T23:00:49.305Z,-20163.44
2022-09-28T23:03:17.089Z,-20164.50
2022-09-28T23:05:53.863Z,-20162.97
2022-09-28T23:08:22.028Z,-20161.00
2022-09-28T23:10:50.323Z,-20159.00
2022-09-28T23:13:19.479Z,-20156.84
2022-09-28T23:15:57.444Z,-20153.34
2022-09-28T23:18:26.045Z,-20155.16
2022-09-28T23:20:54.842Z,-20155.16
2022-09-28T23:23:22.552Z,-20153.47
2022-09-28T23:25:50.425Z,-20154.09
2022-09-28T23:28:18.444Z,-20152.72
2022-09-28T23:30:46.073Z,-20153.63
2022-09-28T23:33:15.887Z,-20151.78
2022-09-28T23:35:43.994Z,-20152.25
2022-09-28T23:38:13.438Z,-20147.03
2022-09-28T23:40:41.255Z,-20147.03
2022-09-28T23:43:09.545Z,-20144.13
2022-09-28T23:45:37.198Z,-20145.50
2022-09-28T23:48:04.895Z,-20147.50
2022-09-28T23:50:33.827Z,-20145.50
2022-09-28T23:53:01.555Z,-20143.66
2022-09-28T23:55:29.230Z,-20144.91
2022-09-28T23:57:58.057Z,-20145.50
